Weather History for Manitowoc, WI

Change the Weather History Date:

Friday, February 15, 2013

  Actual Average Record
Temperature  
Mean Temperature 18 °F -  
Max Temperature 23 °F 29 °F 54 °F (1954)
Min Temperature 12 °F 16 °F -7 °F (1963)
Degree Days  
Heating Degree Days 48    
Moisture  
Dew Point 7 °F    
Average Humidity 62    
Maximum Humidity 79    
Minimum Humidity 50    
Precipitation  
Precipitation 0.01 in - - ()
Sea Level Pressure  
Sea Level Pressure 30.10 in    
Wind  
Wind Speed 10 mph (WNW)    
Max Wind Speed 16 mph    
Max Gust Speed 23 mph    
Visibility 10 miles    
Events      
Averages and records for this station are not official NWS values.
T = Trace of Precipitation, MM = Missing Value Source: NWS Daily Summary

Daily Weather History Graph

Daily Weather History Graph

Search for Another Location

Airport:

Trip Planner

Search our weather history database for the weather conditions in past years. The results will help you decide how hot, cold, wet, or windy it might be!

Date:

Astronomy

Feb. 15, 2013 Rise Set
Actual Time 6:49 AM CST 5:20 PM CST
Civil Twilight 6:20 AM CST 5:50 PM CST
Nautical Twilight 5:46 AM CST 6:24 PM CST
Astronomical Twilight 5:12 AM CST 6:57 PM CST
Moon 9:11 AM CST (2/15) 11:36 PM CST (2/15)
Length of Visible Light 11h 30m
Length of Day
10h 30m
Waxing Crescent, 30% of the Moon is Illuminated
Feb 15
Waxing Crescent
Feb 17
First Quarter
Feb 25
Full
Mar 4
Last Quarter
Mar 11
New

Hourly Weather History & Observations

Time (CST) Temp. Windchill Dew Point Humidity Pressure Visibility Wind Dir Wind Speed Gust Speed Precip Events Conditions
12:15 AM 23.0 °F 12.4 °F 12.2 °F 63% 29.99 in 10.0 mi NNW 10.4 mph - N/A   Overcast
12:35 AM 21.2 °F 8.9 °F 12.2 °F 68% 30.00 in 10.0 mi NNW 12.7 mph - N/A   Overcast
12:55 AM 21.2 °F 12.6 °F 12.2 °F 68% 30.00 in 10.0 mi NNW 6.9 mph - N/A   Overcast
1:15 AM 21.2 °F 9.5 °F 10.4 °F 63% 30.01 in 10.0 mi NNW 11.5 mph - N/A   Overcast
1:35 AM 19.4 °F 9.5 °F 8.6 °F 63% 30.01 in 10.0 mi NNW 8.1 mph - N/A   Mostly Cloudy
1:55 AM 19.4 °F 7.2 °F 8.6 °F 63% 30.01 in 10.0 mi NNW 11.5 mph 18.4 mph N/A   Partly Cloudy
2:15 AM 17.6 °F 8.2 °F 6.8 °F 63% 30.02 in 10.0 mi NW 6.9 mph - N/A   Clear
2:35 AM 17.6 °F 5.7 °F 6.8 °F 63% 30.02 in 10.0 mi NW 10.4 mph - N/A   Clear
2:55 AM 19.4 °F 8.6 °F 6.8 °F 58% 30.03 in 10.0 mi NNW 9.2 mph - N/A   Mostly Cloudy
3:15 AM 19.4 °F 8.6 °F 6.8 °F 58% 30.03 in 10.0 mi NW 9.2 mph - N/A   Scattered Clouds
3:35 AM 19.4 °F 9.5 °F 8.6 °F 63% 30.03 in 10.0 mi NW 8.1 mph - N/A   Mostly Cloudy
3:55 AM 19.4 °F 7.2 °F 8.6 °F 63% 30.03 in 10.0 mi WNW 11.5 mph - N/A   Scattered Clouds
4:15 AM 17.6 °F 5.7 °F 8.6 °F 68% 30.04 in 10.0 mi WNW 10.4 mph - N/A   Scattered Clouds
4:35 AM 17.6 °F 6.4 °F 8.6 °F 68% 30.05 in 10.0 mi WNW 9.2 mph - N/A   Clear
4:55 AM 17.6 °F 7.3 °F 6.8 °F 63% 30.06 in 10.0 mi West 8.1 mph - N/A   Clear
5:15 AM 15.8 °F 4.2 °F 6.8 °F 68% 30.07 in 10.0 mi WNW 9.2 mph - N/A   Clear
5:35 AM 15.8 °F 5.1 °F 6.8 °F 68% 30.08 in 10.0 mi WNW 8.1 mph - N/A   Clear
5:55 AM 15.8 °F 5.1 °F 6.8 °F 68% 30.08 in 10.0 mi WNW 8.1 mph - N/A   Clear
6:15 AM 14.0 °F 2.9 °F 5.0 °F 67% 30.09 in 10.0 mi WNW 8.1 mph - N/A   Clear
6:35 AM 14.0 °F 2.9 °F 6.8 °F 73% 30.10 in 10.0 mi West 8.1 mph - N/A   Clear
6:55 AM 14.0 °F 2.9 °F 6.8 °F 73% 30.10 in 10.0 mi West 8.1 mph - N/A   Clear
7:15 AM 12.2 °F -0.2 °F 6.8 °F 79% 30.10 in 10.0 mi WNW 9.2 mph - N/A   Clear
7:35 AM 14.0 °F 2.9 °F 6.8 °F 73% 30.11 in 10.0 mi WNW 8.1 mph - N/A   Clear
7:55 AM 14.0 °F 2.0 °F 6.8 °F 73% 30.12 in 10.0 mi West 9.2 mph - N/A   Clear
8:15 AM 15.8 °F 5.1 °F 6.8 °F 68% 30.13 in 10.0 mi West 8.1 mph - N/A   Clear
8:35 AM 15.8 °F 4.2 °F 6.8 °F 68% 30.13 in 10.0 mi WNW 9.2 mph - N/A   Clear
8:55 AM 15.8 °F 6.1 °F 6.8 °F 68% 30.14 in 10.0 mi WNW 6.9 mph - N/A   Clear
9:15 AM 17.6 °F 7.3 °F 8.6 °F 68% 30.14 in 10.0 mi West 8.1 mph - N/A   Clear
9:35 AM 17.6 °F 8.2 °F 8.6 °F 68% 30.14 in 10.0 mi West 6.9 mph - N/A   Clear
9:55 AM 17.6 °F 6.4 °F 8.6 °F 68% 30.14 in 10.0 mi West 9.2 mph - N/A   Clear
10:15 AM 17.6 °F 7.3 °F 8.6 °F 68% 30.14 in 10.0 mi West 8.1 mph - N/A   Clear
10:35 AM 19.4 °F 10.4 °F 8.6 °F 63% 30.14 in 10.0 mi West 6.9 mph - N/A   Clear
10:55 AM 19.4 °F 8.6 °F 8.6 °F 63% 30.14 in 10.0 mi West 9.2 mph - N/A   Clear
11:15 AM 19.4 °F 10.4 °F 8.6 °F 63% 30.14 in 10.0 mi West 6.9 mph - N/A   Partly Cloudy
11:55 AM 21.2 °F 10.1 °F 8.6 °F 58% 30.13 in 10.0 mi West 10.4 mph - N/A   Clear
12:15 PM 21.2 °F 10.1 °F 8.6 °F 58% 30.12 in 10.0 mi West 10.4 mph - N/A   Clear
12:35 PM 21.2 °F 9.5 °F 8.6 °F 58% 30.12 in 10.0 mi West 11.5 mph 16.1 mph N/A   Clear
12:55 PM 21.2 °F 10.1 °F 8.6 °F 58% 30.12 in 10.0 mi West 10.4 mph - N/A   Clear
1:15 PM 21.2 °F 11.7 °F 8.6 °F 58% 30.11 in 10.0 mi West 8.1 mph - N/A   Clear
1:35 PM 23.0 °F 12.4 °F 10.4 °F 59% 30.11 in 10.0 mi WSW 10.4 mph - N/A   Scattered Clouds
1:55 PM 23.0 °F 11.1 °F 10.4 °F 59% 30.11 in 10.0 mi WSW 12.7 mph - N/A   Overcast
2:15 PM 23.0 °F 11.7 °F 10.4 °F 59% 30.11 in 10.0 mi West 11.5 mph 16.1 mph N/A   Overcast
2:35 PM 23.0 °F 11.7 °F 10.4 °F 59% 30.11 in 10.0 mi West 11.5 mph - N/A   Mostly Cloudy
2:55 PM 21.2 °F 9.5 °F 10.4 °F 63% 30.11 in 10.0 mi West 11.5 mph - N/A   Scattered Clouds
3:15 PM 21.2 °F 8.9 °F 8.6 °F 58% 30.11 in 10.0 mi WSW 12.7 mph - N/A   Clear
3:35 PM 23.0 °F 11.7 °F 8.6 °F 54% 30.12 in 10.0 mi West 11.5 mph - N/A   Clear
3:55 PM 23.0 °F 12.4 °F 8.6 °F 54% 30.12 in 10.0 mi West 10.4 mph - N/A   Scattered Clouds
4:15 PM 23.0 °F 12.4 °F 6.8 °F 50% 30.12 in 10.0 mi WSW 10.4 mph - N/A   Mostly Cloudy
4:35 PM 21.2 °F 11.7 °F 6.8 °F 54% 30.12 in 10.0 mi West 8.1 mph - N/A   Mostly Cloudy
4:55 PM 21.2 °F 11.7 °F 6.8 °F 54% 30.13 in 10.0 mi WSW 8.1 mph - N/A   Overcast
5:15 PM 21.2 °F 9.5 °F 6.8 °F 54% 30.13 in 10.0 mi West 11.5 mph - N/A   Overcast
5:35 PM 21.2 °F 10.9 °F 6.8 °F 54% 30.13 in 10.0 mi WSW 9.2 mph - N/A   Overcast
5:55 PM 19.4 °F 6.6 °F 6.8 °F 58% 30.13 in 10.0 mi West 12.7 mph - N/A   Mostly Cloudy
6:15 PM 19.4 °F 8.6 °F 5.0 °F 54% 30.14 in 10.0 mi West 9.2 mph - N/A   Mostly Cloudy
6:35 PM 19.4 °F 9.5 °F 5.0 °F 54% 30.14 in 10.0 mi West 8.1 mph - N/A   Overcast
6:55 PM 19.4 °F 7.9 °F 5.0 °F 54% 30.14 in 10.0 mi West 10.4 mph - N/A   Overcast
7:15 PM 19.4 °F 6.6 °F 5.0 °F 54% 30.13 in 10.0 mi West 12.7 mph - N/A   Overcast
7:35 PM 19.4 °F 7.2 °F 5.0 °F 54% 30.14 in 10.0 mi West 11.5 mph 17.3 mph N/A   Overcast
7:55 PM 19.4 °F 7.2 °F 6.8 °F 58% 30.14 in 10.0 mi West 11.5 mph - N/A   Overcast
8:15 PM 19.4 °F 8.6 °F 6.8 °F 58% 30.14 in 10.0 mi West 9.2 mph - N/A   Overcast
8:35 PM 19.4 °F 7.9 °F 6.8 °F 58% 30.14 in 10.0 mi West 10.4 mph - N/A   Overcast
8:55 PM 19.4 °F 7.9 °F 6.8 °F 58% 30.14 in 10.0 mi West 10.4 mph - N/A   Overcast
9:15 PM 19.4 °F 7.2 °F 8.6 °F 63% 30.14 in 10.0 mi WNW 11.5 mph - N/A   Overcast
9:35 PM 17.6 °F 5.7 °F 6.8 °F 63% 30.15 in 10.0 mi NW 10.4 mph - N/A   Overcast
9:55 PM 17.6 °F 5.0 °F 6.8 °F 63% 30.15 in 10.0 mi NW 11.5 mph - N/A   Overcast
10:15 PM 17.6 °F 3.7 °F 5.0 °F 58% 30.15 in 10.0 mi NW 13.8 mph 17.3 mph N/A   Overcast
10:35 PM 15.8 °F 0.9 °F 3.2 °F 58% 30.15 in 10.0 mi NNW 15.0 mph - N/A   Overcast
10:55 PM 15.8 °F 0.3 °F 3.2 °F 58% 30.15 in 10.0 mi NW 16.1 mph 23.0 mph N/A   Overcast
11:15 PM 15.8 °F 4.2 °F 3.2 °F 58% 30.14 in 10.0 mi NW 9.2 mph - N/A   Overcast
11:35 PM 15.8 °F 4.2 °F 3.2 °F 58% 30.14 in 10.0 mi NW 9.2 mph - N/A   Overcast
11:55 PM 14.0 °F -2.0 °F 1.4 °F 57% 30.14 in 10.0 mi NNW 16.1 mph - N/A   Overcast